New Philadelphia, OH

7:25 PM EST on February 05, 2016 (GMT -0500)
Steele Hill | | Change Station
CLOSE
Current Station
Personal Weather Station
Location: New Philadelphia, OH
Elevation: 942 ft
Nearby Weather Stations

Elev 942 ft 40.48 °N, 81.48 °W | Updated 4 seconds ago

Clear
Clear
30.8 °F
Feels Like 31 °F
N
0.0
Wind Variable Wind from SW
Gusts 0.0 mph

Today
High -- | Low -- °F
--% Chance of Precip.
Yesterday
High -- | Low -- °F
Precip. -- in
Pressure 30.42 in
Visibility 10.0 miles
Clouds Clear
Windchill 31 °F
Dew Point 22 °F
Humidity 68%
Rainfall 0.00 in
Snow Depth Not available.
7:31 AM 5:48 PM
Waning Crescent, 8% visible
METAR KPHD 052353Z AUTO 00000KT 10SM CLR M01/M07 A3038 RMK AO2 SLP301 T10111072 10033 21011 53008
Pressure 30.42 in
Visibility 10.0 miles
Clouds Clear
Windchill 31 °F
Dew Point 22 °F
Humidity 68%
Rainfall 0.00 in
Snow Depth Not available.
7:31 AM 5:48 PM
Waning Crescent, 8% visible
METAR KPHD 052353Z AUTO 00000KT 10SM CLR M01/M07 A3038 RMK AO2 SLP301 T10111072 10033 21011 53008

10-Day Weather Forecast

Almanac

Astronomy

Feb. 05, 2016 Rise Set
Actual Time
Civil Twilight
Nautical Twilight
Astronomical Twilight
Moon
Length of Visible Light
Length of Day
Tomorrow will be .
, % of the Moon is Illuminated

Today's Extremes

State Highs State Lows

Community

WunderPhotos

Upload Photos

1,890,897 photos uploaded!

WunderBlog® & News

Nearby

Air Quality

  Air Quality AQ Index Pollutant
Not available.

Snow Depth

Station Depth Elevation

Earthquake Activity

City Distance Mag. Time & Date
Minimum magnitude displayed is 2.5.

Coastal Water Temperatures

Place Temperature

Stations

Nearby Weather Stations

Station Location Temp. Windchill Dew Point Humidity Wind Precip. Elev Updated Type
                   

Watches & Warnings

There are currently no watches in effect.